sensor_id;sensor_type;location;lat;lon;timestamp;P1;durP1;ratioP1;P2;durP2;ratioP2
22441;SDS011;11388;54.456;9.752;2023-02-28T00:01:20;9.75;;;7.50;;
22441;SDS011;11388;54.456;9.752;2023-02-28T00:03:45;9.23;;;6.72;;
22441;SDS011;11388;54.456;9.752;2023-02-28T00:06:11;9.07;;;6.65;;
22441;SDS011;11388;54.456;9.752;2023-02-28T00:08:37;8.73;;;6.45;;
22441;SDS011;11388;54.456;9.752;2023-02-28T00:11:08;7.10;;;5.85;;
22441;SDS011;11388;54.456;9.752;2023-02-28T00:13:36;8.10;;;5.70;;
22441;SDS011;11388;54.456;9.752;2023-02-28T00:16:05;8.90;;;5.90;;
22441;SDS011;11388;54.456;9.752;2023-02-28T00:18:36;9.05;;;5.85;;
22441;SDS011;11388;54.456;9.752;2023-02-28T00:21:02;9.18;;;5.80;;
22441;SDS011;11388;54.456;9.752;2023-02-28T00:23:29;9.13;;;5.55;;
22441;SDS011;11388;54.456;9.752;2023-02-28T00:25:54;8.13;;;5.43;;
22441;SDS011;11388;54.456;9.752;2023-02-28T00:28:20;8.10;;;5.85;;
22441;SDS011;11388;54.456;9.752;2023-02-28T00:30:46;6.90;;;5.53;;
22441;SDS011;11388;54.456;9.752;2023-02-28T00:33:12;8.10;;;5.70;;
22441;SDS011;11388;54.456;9.752;2023-02-28T00:35:38;10.85;;;5.63;;
22441;SDS011;11388;54.456;9.752;2023-02-28T00:38:04;7.93;;;4.85;;
22441;SDS011;11388;54.456;9.752;2023-02-28T00:40:29;6.60;;;4.85;;
22441;SDS011;11388;54.456;9.752;2023-02-28T00:42:55;9.35;;;4.70;;
22441;SDS011;11388;54.456;9.752;2023-02-28T00:45:21;6.82;;;4.63;;
22441;SDS011;11388;54.456;9.752;2023-02-28T00:47:46;8.05;;;4.68;;
22441;SDS011;11388;54.456;9.752;2023-02-28T00:50:16;6.55;;;5.03;;
22441;SDS011;11388;54.456;9.752;2023-02-28T00:52:42;6.88;;;4.75;;
22441;SDS011;11388;54.456;9.752;2023-02-28T00:55:09;8.55;;;4.90;;
22441;SDS011;11388;54.456;9.752;2023-02-28T00:57:34;7.15;;;4.47;;
22441;SDS011;11388;54.456;9.752;2023-02-28T01:00:00;6.57;;;4.60;;
22441;SDS011;11388;54.456;9.752;2023-02-28T01:02:28;7.20;;;4.90;;
22441;SDS011;11388;54.456;9.752;2023-02-28T01:04:54;7.18;;;4.20;;
22441;SDS011;11388;54.456;9.752;2023-02-28T01:07:21;6.85;;;4.35;;
22441;SDS011;11388;54.456;9.752;2023-02-28T01:09:47;7.22;;;4.50;;
22441;SDS011;11388;54.456;9.752;2023-02-28T01:12:13;7.63;;;4.68;;
22441;SDS011;11388;54.456;9.752;2023-02-28T01:14:39;7.50;;;4.47;;
22441;SDS011;11388;54.456;9.752;2023-02-28T01:17:05;8.00;;;4.35;;
22441;SDS011;11388;54.456;9.752;2023-02-28T01:19:31;9.07;;;4.60;;
22441;SDS011;11388;54.456;9.752;2023-02-28T01:22:02;7.53;;;4.35;;
22441;SDS011;11388;54.456;9.752;2023-02-28T01:24:29;7.38;;;4.80;;
22441;SDS011;11388;54.456;9.752;2023-02-28T01:26:55;9.40;;;4.80;;
22441;SDS011;11388;54.456;9.752;2023-02-28T01:29:21;8.10;;;4.65;;
22441;SDS011;11388;54.456;9.752;2023-02-28T01:31:46;8.13;;;4.97;;
22441;SDS011;11388;54.456;9.752;2023-02-28T01:34:12;7.40;;;4.82;;
22441;SDS011;11388;54.456;9.752;2023-02-28T01:36:37;7.63;;;4.53;;
22441;SDS011;11388;54.456;9.752;2023-02-28T01:39:03;7.00;;;4.50;;
22441;SDS011;11388;54.456;9.752;2023-02-28T01:41:30;7.55;;;4.55;;
22441;SDS011;11388;54.456;9.752;2023-02-28T01:44:02;7.13;;;4.78;;
22441;SDS011;11388;54.456;9.752;2023-02-28T01:46:49;6.93;;;4.43;;
22441;SDS011;11388;54.456;9.752;2023-02-28T01:49:15;8.93;;;5.35;;
22441;SDS011;11388;54.456;9.752;2023-02-28T01:51:46;7.90;;;4.90;;
22441;SDS011;11388;54.456;9.752;2023-02-28T01:54:24;6.45;;;4.50;;
22441;SDS011;11388;54.456;9.752;2023-02-28T01:56:59;7.22;;;4.97;;
22441;SDS011;11388;54.456;9.752;2023-02-28T02:02:18;7.72;;;4.55;;
22441;SDS011;11388;54.456;9.752;2023-02-28T02:04:53;6.78;;;4.57;;
22441;SDS011;11388;54.456;9.752;2023-02-28T02:07:21;6.57;;;4.53;;
22441;SDS011;11388;54.456;9.752;2023-02-28T02:09:49;5.68;;;4.40;;
22441;SDS011;11388;54.456;9.752;2023-02-28T02:12:51;7.55;;;4.70;;
22441;SDS011;11388;54.456;9.752;2023-02-28T02:15:24;9.05;;;4.55;;
22441;SDS011;11388;54.456;9.752;2023-02-28T02:21:33;6.68;;;4.22;;
22441;SDS011;11388;54.456;9.752;2023-02-28T02:37:43;6.88;;;4.60;;
22441;SDS011;11388;54.456;9.752;2023-02-28T02:40:31;8.10;;;5.07;;
22441;SDS011;11388;54.456;9.752;2023-02-28T02:45:45;7.47;;;5.10;;
22441;SDS011;11388;54.456;9.752;2023-02-28T02:48:17;8.98;;;5.68;;
22441;SDS011;11388;54.456;9.752;2023-02-28T02:50:50;8.25;;;5.50;;
22441;SDS011;11388;54.456;9.752;2023-02-28T02:53:21;8.10;;;5.47;;
22441;SDS011;11388;54.456;9.752;2023-02-28T02:55:52;7.93;;;4.97;;
22441;SDS011;11388;54.456;9.752;2023-02-28T02:58:20;7.35;;;5.07;;
22441;SDS011;11388;54.456;9.752;2023-02-28T03:00:52;7.85;;;5.25;;
22441;SDS011;11388;54.456;9.752;2023-02-28T03:03:21;9.00;;;5.05;;
22441;SDS011;11388;54.456;9.752;2023-02-28T03:05:53;11.35;;;5.47;;
22441;SDS011;11388;54.456;9.752;2023-02-28T03:08:23;8.23;;;5.10;;
22441;SDS011;11388;54.456;9.752;2023-02-28T03:10:50;8.00;;;5.65;;
22441;SDS011;11388;54.456;9.752;2023-02-28T03:21:46;10.60;;;5.60;;
22441;SDS011;11388;54.456;9.752;2023-02-28T03:30:01;8.32;;;5.35;;
22441;SDS011;11388;54.456;9.752;2023-02-28T03:32:38;7.95;;;5.38;;
22441;SDS011;11388;54.456;9.752;2023-02-28T03:35:28;8.40;;;5.35;;
22441;SDS011;11388;54.456;9.752;2023-02-28T03:38:16;8.00;;;5.70;;
22441;SDS011;11388;54.456;9.752;2023-02-28T03:40:51;7.72;;;5.32;;
22441;SDS011;11388;54.456;9.752;2023-02-28T03:43:27;6.15;;;4.90;;
22441;SDS011;11388;54.456;9.752;2023-02-28T03:45:58;7.65;;;5.10;;
22441;SDS011;11388;54.456;9.752;2023-02-28T03:48:50;8.55;;;4.93;;
22441;SDS011;11388;54.456;9.752;2023-02-28T03:51:22;7.90;;;5.13;;
22441;SDS011;11388;54.456;9.752;2023-02-28T04:02:24;8.52;;;5.40;;
22441;SDS011;11388;54.456;9.752;2023-02-28T04:04:50;8.32;;;4.85;;
22441;SDS011;11388;54.456;9.752;2023-02-28T04:07:16;7.32;;;5.00;;
22441;SDS011;11388;54.456;9.752;2023-02-28T04:09:42;7.13;;;5.00;;
22441;SDS011;11388;54.456;9.752;2023-02-28T04:12:08;8.15;;;5.00;;
22441;SDS011;11388;54.456;9.752;2023-02-28T04:14:34;9.80;;;5.07;;
22441;SDS011;11388;54.456;9.752;2023-02-28T04:17:00;8.35;;;4.93;;
22441;SDS011;11388;54.456;9.752;2023-02-28T04:19:25;8.23;;;4.90;;
22441;SDS011;11388;54.456;9.752;2023-02-28T04:21:52;7.45;;;4.93;;
22441;SDS011;11388;54.456;9.752;2023-02-28T04:24:19;8.25;;;5.22;;
22441;SDS011;11388;54.456;9.752;2023-02-28T04:26:48;12.93;;;5.80;;
22441;SDS011;11388;54.456;9.752;2023-02-28T04:29:20;8.93;;;5.40;;
22441;SDS011;11388;54.456;9.752;2023-02-28T04:31:51;9.55;;;5.38;;
22441;SDS011;11388;54.456;9.752;2023-02-28T04:34:23;7.72;;;5.35;;
22441;SDS011;11388;54.456;9.752;2023-02-28T04:36:49;9.05;;;5.10;;
22441;SDS011;11388;54.456;9.752;2023-02-28T04:39:16;7.43;;;5.03;;
22441;SDS011;11388;54.456;9.752;2023-02-28T04:41:43;7.03;;;5.00;;
22441;SDS011;11388;54.456;9.752;2023-02-28T04:44:09;7.25;;;5.25;;
22441;SDS011;11388;54.456;9.752;2023-02-28T04:46:35;6.90;;;5.15;;
22441;SDS011;11388;54.456;9.752;2023-02-28T04:49:01;8.65;;;5.50;;
22441;SDS011;11388;54.456;9.752;2023-02-28T04:51:27;8.02;;;5.13;;
22441;SDS011;11388;54.456;9.752;2023-02-28T04:53:53;7.72;;;5.20;;
22441;SDS011;11388;54.456;9.752;2023-02-28T04:56:20;10.60;;;5.10;;
22441;SDS011;11388;54.456;9.752;2023-02-28T04:58:46;8.60;;;6.10;;
22441;SDS011;11388;54.456;9.752;2023-02-28T05:01:17;8.82;;;5.60;;
22441;SDS011;11388;54.456;9.752;2023-02-28T05:03:43;9.35;;;5.65;;
22441;SDS011;11388;54.456;9.752;2023-02-28T05:06:09;7.55;;;5.25;;
22441;SDS011;11388;54.456;9.752;2023-02-28T05:08:36;11.32;;;5.30;;
22441;SDS011;11388;54.456;9.752;2023-02-28T05:11:03;10.20;;;5.93;;
22441;SDS011;11388;54.456;9.752;2023-02-28T05:13:30;11.20;;;6.38;;
22441;SDS011;11388;54.456;9.752;2023-02-28T05:15:56;6.28;;;5.20;;
22441;SDS011;11388;54.456;9.752;2023-02-28T05:18:22;7.88;;;5.75;;
22441;SDS011;11388;54.456;9.752;2023-02-28T05:20:47;7.35;;;5.57;;
22441;SDS011;11388;54.456;9.752;2023-02-28T05:23:13;6.82;;;5.25;;
22441;SDS011;11388;54.456;9.752;2023-02-28T05:25:40;7.28;;;4.95;;
22441;SDS011;11388;54.456;9.752;2023-02-28T05:28:06;7.72;;;5.55;;
22441;SDS011;11388;54.456;9.752;2023-02-28T05:30:32;9.25;;;5.53;;
22441;SDS011;11388;54.456;9.752;2023-02-28T05:32:58;8.20;;;5.68;;
22441;SDS011;11388;54.456;9.752;2023-02-28T05:35:24;7.22;;;5.22;;
22441;SDS011;11388;54.456;9.752;2023-02-28T05:37:51;8.10;;;5.32;;
22441;SDS011;11388;54.456;9.752;2023-02-28T05:40:17;10.88;;;5.70;;
22441;SDS011;11388;54.456;9.752;2023-02-28T05:42:44;9.32;;;6.20;;
22441;SDS011;11388;54.456;9.752;2023-02-28T05:45:10;11.27;;;9.02;;
22441;SDS011;11388;54.456;9.752;2023-02-28T05:47:36;15.40;;;10.10;;
22441;SDS011;11388;54.456;9.752;2023-02-28T05:50:02;18.80;;;11.27;;
22441;SDS011;11388;54.456;9.752;2023-02-28T05:52:28;13.70;;;11.10;;
22441;SDS011;11388;54.456;9.752;2023-02-28T05:54:55;14.85;;;10.10;;
22441;SDS011;11388;54.456;9.752;2023-02-28T05:57:21;17.90;;;9.57;;
22441;SDS011;11388;54.456;9.752;2023-02-28T05:59:47;14.18;;;10.55;;
22441;SDS011;11388;54.456;9.752;2023-02-28T06:02:13;10.80;;;8.95;;
22441;SDS011;11388;54.456;9.752;2023-02-28T06:04:42;9.40;;;6.88;;
22441;SDS011;11388;54.456;9.752;2023-02-28T06:07:08;10.98;;;6.70;;
22441;SDS011;11388;54.456;9.752;2023-02-28T06:09:34;11.30;;;7.53;;
22441;SDS011;11388;54.456;9.752;2023-02-28T06:12:00;9.68;;;6.80;;
22441;SDS011;11388;54.456;9.752;2023-02-28T06:14:35;10.80;;;6.90;;
22441;SDS011;11388;54.456;9.752;2023-02-28T06:17:01;8.52;;;6.45;;
22441;SDS011;11388;54.456;9.752;2023-02-28T06:19:28;10.43;;;7.68;;
22441;SDS011;11388;54.456;9.752;2023-02-28T06:21:55;10.85;;;7.80;;
22441;SDS011;11388;54.456;9.752;2023-02-28T06:24:22;13.38;;;8.93;;
22441;SDS011;11388;54.456;9.752;2023-02-28T06:26:49;10.95;;;7.45;;
22441;SDS011;11388;54.456;9.752;2023-02-28T06:29:15;9.93;;;7.50;;
22441;SDS011;11388;54.456;9.752;2023-02-28T06:31:44;11.85;;;7.00;;
22441;SDS011;11388;54.456;9.752;2023-02-28T06:34:11;11.13;;;7.40;;
22441;SDS011;11388;54.456;9.752;2023-02-28T06:36:37;10.32;;;6.13;;
22441;SDS011;11388;54.456;9.752;2023-02-28T06:39:04;12.07;;;6.75;;
22441;SDS011;11388;54.456;9.752;2023-02-28T06:41:30;13.02;;;7.03;;
22441;SDS011;11388;54.456;9.752;2023-02-28T06:43:56;10.85;;;6.70;;
22441;SDS011;11388;54.456;9.752;2023-02-28T06:46:22;10.80;;;6.40;;
22441;SDS011;11388;54.456;9.752;2023-02-28T06:48:48;9.18;;;6.72;;
22441;SDS011;11388;54.456;9.752;2023-02-28T06:51:16;10.40;;;6.82;;
22441;SDS011;11388;54.456;9.752;2023-02-28T06:53:49;11.65;;;6.75;;
22441;SDS011;11388;54.456;9.752;2023-02-28T06:56:15;11.27;;;7.50;;
22441;SDS011;11388;54.456;9.752;2023-02-28T06:58:48;12.65;;;7.38;;
22441;SDS011;11388;54.456;9.752;2023-02-28T07:01:15;9.55;;;7.13;;
22441;SDS011;11388;54.456;9.752;2023-02-28T07:03:41;10.35;;;6.40;;
22441;SDS011;11388;54.456;9.752;2023-02-28T07:06:07;11.50;;;6.55;;
22441;SDS011;11388;54.456;9.752;2023-02-28T07:08:33;9.40;;;6.60;;
22441;SDS011;11388;54.456;9.752;2023-02-28T07:11:00;11.57;;;6.85;;
22441;SDS011;11388;54.456;9.752;2023-02-28T07:13:26;10.80;;;7.03;;
22441;SDS011;11388;54.456;9.752;2023-02-28T07:15:57;10.93;;;7.30;;
22441;SDS011;11388;54.456;9.752;2023-02-28T07:18:26;10.45;;;6.60;;
22441;SDS011;11388;54.456;9.752;2023-02-28T07:20:53;10.35;;;7.47;;
22441;SDS011;11388;54.456;9.752;2023-02-28T07:23:18;13.32;;;8.50;;
22441;SDS011;11388;54.456;9.752;2023-02-28T07:25:44;11.57;;;8.00;;
22441;SDS011;11388;54.456;9.752;2023-02-28T07:28:11;10.98;;;7.60;;
22441;SDS011;11388;54.456;9.752;2023-02-28T07:30:37;12.95;;;7.72;;
22441;SDS011;11388;54.456;9.752;2023-02-28T07:33:03;12.30;;;7.60;;
22441;SDS011;11388;54.456;9.752;2023-02-28T07:35:29;14.00;;;7.75;;
22441;SDS011;11388;54.456;9.752;2023-02-28T07:37:57;11.02;;;7.40;;
22441;SDS011;11388;54.456;9.752;2023-02-28T07:40:23;9.82;;;7.05;;
22441;SDS011;11388;54.456;9.752;2023-02-28T07:42:49;9.45;;;6.85;;
22441;SDS011;11388;54.456;9.752;2023-02-28T07:45:15;9.73;;;7.30;;
22441;SDS011;11388;54.456;9.752;2023-02-28T07:47:41;9.68;;;6.82;;
22441;SDS011;11388;54.456;9.752;2023-02-28T07:50:08;9.05;;;6.88;;
22441;SDS011;11388;54.456;9.752;2023-02-28T07:52:37;11.45;;;7.32;;
22441;SDS011;11388;54.456;9.752;2023-02-28T07:55:04;8.50;;;6.82;;
22441;SDS011;11388;54.456;9.752;2023-02-28T07:57:30;11.07;;;7.60;;
22441;SDS011;11388;54.456;9.752;2023-02-28T07:59:56;9.85;;;7.50;;
22441;SDS011;11388;54.456;9.752;2023-02-28T08:02:22;10.95;;;7.35;;
22441;SDS011;11388;54.456;9.752;2023-02-28T08:04:48;11.10;;;7.65;;
22441;SDS011;11388;54.456;9.752;2023-02-28T08:07:14;10.65;;;8.05;;
22441;SDS011;11388;54.456;9.752;2023-02-28T08:09:41;10.15;;;7.95;;
22441;SDS011;11388;54.456;9.752;2023-02-28T08:12:08;12.32;;;7.97;;
22441;SDS011;11388;54.456;9.752;2023-02-28T08:14:35;12.45;;;8.10;;
22441;SDS011;11388;54.456;9.752;2023-02-28T08:17:00;11.32;;;8.40;;
22441;SDS011;11388;54.456;9.752;2023-02-28T08:19:26;10.63;;;7.60;;
22441;SDS011;11388;54.456;9.752;2023-02-28T08:21:53;10.85;;;8.32;;
22441;SDS011;11388;54.456;9.752;2023-02-28T08:24:19;11.43;;;8.18;;
22441;SDS011;11388;54.456;9.752;2023-02-28T08:26:45;11.30;;;8.02;;
22441;SDS011;11388;54.456;9.752;2023-02-28T08:29:11;10.68;;;7.90;;
22441;SDS011;11388;54.456;9.752;2023-02-28T08:31:36;14.80;;;8.13;;
22441;SDS011;11388;54.456;9.752;2023-02-28T08:34:06;10.32;;;7.82;;
22441;SDS011;11388;54.456;9.752;2023-02-28T08:36:33;11.60;;;7.55;;
22441;SDS011;11388;54.456;9.752;2023-02-28T08:38:59;11.75;;;7.57;;
22441;SDS011;11388;54.456;9.752;2023-02-28T08:41:27;10.90;;;7.47;;
22441;SDS011;11388;54.456;9.752;2023-02-28T08:43:53;10.88;;;7.80;;
22441;SDS011;11388;54.456;9.752;2023-02-28T08:46:18;12.43;;;7.70;;
22441;SDS011;11388;54.456;9.752;2023-02-28T08:48:45;12.30;;;7.32;;
22441;SDS011;11388;54.456;9.752;2023-02-28T08:51:12;9.90;;;6.97;;
22441;SDS011;11388;54.456;9.752;2023-02-28T08:53:44;7.70;;;5.45;;
22441;SDS011;11388;54.456;9.752;2023-02-28T08:56:11;18.83;;;6.22;;
22441;SDS011;11388;54.456;9.752;2023-02-28T08:58:38;9.98;;;5.85;;
22441;SDS011;11388;54.456;9.752;2023-02-28T09:01:23;8.48;;;5.70;;
22441;SDS011;11388;54.456;9.752;2023-02-28T09:03:52;7.25;;;5.10;;
22441;SDS011;11388;54.456;9.752;2023-02-28T09:06:19;8.60;;;5.13;;
22441;SDS011;11388;54.456;9.752;2023-02-28T09:08:46;8.88;;;4.50;;
22441;SDS011;11388;54.456;9.752;2023-02-28T09:11:12;7.20;;;4.10;;
22441;SDS011;11388;54.456;9.752;2023-02-28T09:13:38;7.97;;;4.30;;
22441;SDS011;11388;54.456;9.752;2023-02-28T09:16:05;5.93;;;3.92;;
22441;SDS011;11388;54.456;9.752;2023-02-28T09:18:36;6.90;;;4.22;;
22441;SDS011;11388;54.456;9.752;2023-02-28T09:21:06;8.65;;;4.22;;
22441;SDS011;11388;54.456;9.752;2023-02-28T09:23:33;8.48;;;5.53;;
22441;SDS011;11388;54.456;9.752;2023-02-28T09:26:00;6.85;;;4.47;;
22441;SDS011;11388;54.456;9.752;2023-02-28T09:28:26;8.65;;;4.50;;
22441;SDS011;11388;54.456;9.752;2023-02-28T09:30:53;6.88;;;2.92;;
22441;SDS011;11388;54.456;9.752;2023-02-28T09:33:19;8.27;;;3.80;;
22441;SDS011;11388;54.456;9.752;2023-02-28T09:35:46;5.75;;;3.53;;
22441;SDS011;11388;54.456;9.752;2023-02-28T09:38:13;5.60;;;2.95;;
22441;SDS011;11388;54.456;9.752;2023-02-28T09:40:43;5.28;;;3.10;;
22441;SDS011;11388;54.456;9.752;2023-02-28T09:43:16;5.47;;;2.70;;
22441;SDS011;11388;54.456;9.752;2023-02-28T09:46:04;6.50;;;3.13;;
22441;SDS011;11388;54.456;9.752;2023-02-28T09:48:39;5.28;;;3.08;;
22441;SDS011;11388;54.456;9.752;2023-02-28T09:51:30;5.43;;;2.95;;
22441;SDS011;11388;54.456;9.752;2023-02-28T09:54:15;4.57;;;2.88;;
22441;SDS011;11388;54.456;9.752;2023-02-28T09:56:44;5.47;;;3.20;;
22441;SDS011;11388;54.456;9.752;2023-02-28T10:05:13;6.90;;;3.88;;
22441;SDS011;11388;54.456;9.752;2023-02-28T10:13:14;8.15;;;4.03;;
22441;SDS011;11388;54.456;9.752;2023-02-28T10:15:56;7.43;;;4.50;;
22441;SDS011;11388;54.456;9.752;2023-02-28T10:18:49;7.03;;;4.88;;
22441;SDS011;11388;54.456;9.752;2023-02-28T10:21:18;7.07;;;4.60;;
22441;SDS011;11388;54.456;9.752;2023-02-28T10:23:56;7.53;;;5.40;;
22441;SDS011;11388;54.456;9.752;2023-02-28T10:26:28;8.13;;;5.00;;
22441;SDS011;11388;54.456;9.752;2023-02-28T10:28:56;6.78;;;5.18;;
22441;SDS011;11388;54.456;9.752;2023-02-28T10:31:21;7.88;;;5.10;;
22441;SDS011;11388;54.456;9.752;2023-02-28T10:33:47;7.78;;;5.45;;
22441;SDS011;11388;54.456;9.752;2023-02-28T10:36:14;8.57;;;5.80;;
22441;SDS011;11388;54.456;9.752;2023-02-28T10:38:42;7.80;;;5.32;;
22441;SDS011;11388;54.456;9.752;2023-02-28T10:41:10;6.72;;;4.35;;
22441;SDS011;11388;54.456;9.752;2023-02-28T10:43:39;7.05;;;4.53;;
22441;SDS011;11388;54.456;9.752;2023-02-28T10:48:50;7.78;;;4.20;;
22441;SDS011;11388;54.456;9.752;2023-02-28T10:51:26;5.82;;;4.55;;
22441;SDS011;11388;54.456;9.752;2023-02-28T10:54:00;6.85;;;4.45;;
22441;SDS011;11388;54.456;9.752;2023-02-28T10:56:26;5.80;;;3.80;;
22441;SDS011;11388;54.456;9.752;2023-02-28T10:58:57;7.72;;;4.45;;
22441;SDS011;11388;54.456;9.752;2023-02-28T11:01:39;5.00;;;3.60;;
22441;SDS011;11388;54.456;9.752;2023-02-28T11:04:51;4.57;;;2.92;;
22441;SDS011;11388;54.456;9.752;2023-02-28T11:09:44;4.80;;;3.33;;
22441;SDS011;11388;54.456;9.752;2023-02-28T11:12:57;4.80;;;3.05;;
22441;SDS011;11388;54.456;9.752;2023-02-28T11:15:28;4.70;;;3.25;;
22441;SDS011;11388;54.456;9.752;2023-02-28T11:17:54;5.13;;;3.10;;
22441;SDS011;11388;54.456;9.752;2023-02-28T11:20:24;6.47;;;3.35;;
22441;SDS011;11388;54.456;9.752;2023-02-28T11:22:52;5.25;;;3.42;;
22441;SDS011;11388;54.456;9.752;2023-02-28T11:25:25;5.78;;;3.45;;
22441;SDS011;11388;54.456;9.752;2023-02-28T11:27:56;4.97;;;3.42;;
22441;SDS011;11388;54.456;9.752;2023-02-28T11:30:40;5.07;;;3.15;;
22441;SDS011;11388;54.456;9.752;2023-02-28T11:33:24;5.28;;;3.13;;
22441;SDS011;11388;54.456;9.752;2023-02-28T11:35:51;6.95;;;3.10;;
22441;SDS011;11388;54.456;9.752;2023-02-28T11:38:19;4.22;;;3.13;;
22441;SDS011;11388;54.456;9.752;2023-02-28T11:41:02;5.63;;;3.10;;
22441;SDS011;11388;54.456;9.752;2023-02-28T11:46:33;4.13;;;3.03;;
22441;SDS011;11388;54.456;9.752;2023-02-28T11:52:34;4.75;;;3.55;;
22441;SDS011;11388;54.456;9.752;2023-02-28T11:54:48;5.50;;;3.60;;
22441;SDS011;11388;54.456;9.752;2023-02-28T11:57:33;5.53;;;3.45;;
22441;SDS011;11388;54.456;9.752;2023-02-28T12:14:22;4.68;;;3.00;;
22441;SDS011;11388;54.456;9.752;2023-02-28T12:17:56;4.38;;;2.90;;
22441;SDS011;11388;54.456;9.752;2023-02-28T12:20:13;3.75;;;2.90;;
22441;SDS011;11388;54.456;9.752;2023-02-28T12:22:52;3.88;;;2.67;;
22441;SDS011;11388;54.456;9.752;2023-02-28T12:25:46;6.70;;;2.80;;
22441;SDS011;11388;54.456;9.752;2023-02-28T12:28:27;4.28;;;3.00;;
22441;SDS011;11388;54.456;9.752;2023-02-28T12:33:49;3.88;;;2.40;;
22441;SDS011;11388;54.456;9.752;2023-02-28T12:36:18;4.80;;;2.90;;
22441;SDS011;11388;54.456;9.752;2023-02-28T12:38:56;4.95;;;2.60;;
22441;SDS011;11388;54.456;9.752;2023-02-28T12:44:01;4.43;;;2.60;;
22441;SDS011;11388;54.456;9.752;2023-02-28T12:46:35;3.65;;;2.60;;
22441;SDS011;11388;54.456;9.752;2023-02-28T12:49:09;3.20;;;2.50;;
22441;SDS011;11388;54.456;9.752;2023-02-28T12:51:40;3.35;;;2.60;;
22441;SDS011;11388;54.456;9.752;2023-02-28T13:10:07;5.03;;;3.30;;
22441;SDS011;11388;54.456;9.752;2023-02-28T13:12:34;4.03;;;3.10;;
22441;SDS011;11388;54.456;9.752;2023-02-28T13:15:05;5.72;;;3.28;;
22441;SDS011;11388;54.456;9.752;2023-02-28T13:17:51;6.90;;;3.72;;
22441;SDS011;11388;54.456;9.752;2023-02-28T13:20:30;4.57;;;3.10;;
22441;SDS011;11388;54.456;9.752;2023-02-28T13:23:00;4.45;;;3.28;;
22441;SDS011;11388;54.456;9.752;2023-02-28T13:27:57;5.60;;;3.38;;
22441;SDS011;11388;54.456;9.752;2023-02-28T13:33:31;4.93;;;3.28;;
22441;SDS011;11388;54.456;9.752;2023-02-28T13:38:42;5.22;;;3.83;;
22441;SDS011;11388;54.456;9.752;2023-02-28T13:43:59;4.43;;;3.65;;
22441;SDS011;11388;54.456;9.752;2023-02-28T13:46:32;4.93;;;3.60;;
22441;SDS011;11388;54.456;9.752;2023-02-28T13:49:19;5.25;;;4.10;;
22441;SDS011;11388;54.456;9.752;2023-02-28T13:51:55;4.80;;;3.85;;
22441;SDS011;11388;54.456;9.752;2023-02-28T13:57:33;5.53;;;4.00;;
22441;SDS011;11388;54.456;9.752;2023-02-28T14:02:52;5.97;;;4.13;;
22441;SDS011;11388;54.456;9.752;2023-02-28T14:05:29;5.55;;;4.03;;
22441;SDS011;11388;54.456;9.752;2023-02-28T14:07:58;5.47;;;4.75;;
22441;SDS011;11388;54.456;9.752;2023-02-28T14:10:30;5.50;;;4.60;;
22441;SDS011;11388;54.456;9.752;2023-02-28T14:13:01;6.82;;;5.88;;
22441;SDS011;11388;54.456;9.752;2023-02-28T14:20:48;5.53;;;4.00;;
22441;SDS011;11388;54.456;9.752;2023-02-28T14:23:31;5.35;;;3.83;;
22441;SDS011;11388;54.456;9.752;2023-02-28T14:34:40;4.68;;;3.60;;
22441;SDS011;11388;54.456;9.752;2023-02-28T14:37:15;5.20;;;4.20;;
22441;SDS011;11388;54.456;9.752;2023-02-28T14:39:45;4.60;;;3.85;;
22441;SDS011;11388;54.456;9.752;2023-02-28T14:44:58;6.00;;;4.55;;
22441;SDS011;11388;54.456;9.752;2023-02-28T14:47:28;5.40;;;4.32;;
22441;SDS011;11388;54.456;9.752;2023-02-28T14:49:58;5.25;;;4.13;;
22441;SDS011;11388;54.456;9.752;2023-02-28T14:52:26;6.75;;;4.20;;
22441;SDS011;11388;54.456;9.752;2023-02-28T14:54:55;5.95;;;4.80;;
22441;SDS011;11388;54.456;9.752;2023-02-28T14:57:53;5.80;;;4.25;;
22441;SDS011;11388;54.456;9.752;2023-02-28T15:00:28;5.55;;;4.30;;
22441;SDS011;11388;54.456;9.752;2023-02-28T15:02:56;6.22;;;4.70;;
22441;SDS011;11388;54.456;9.752;2023-02-28T15:05:24;6.63;;;4.00;;
22441;SDS011;11388;54.456;9.752;2023-02-28T15:08:03;4.65;;;3.70;;
22441;SDS011;11388;54.456;9.752;2023-02-28T15:10:55;5.25;;;3.50;;
22441;SDS011;11388;54.456;9.752;2023-02-28T15:13:40;4.85;;;3.70;;
22441;SDS011;11388;54.456;9.752;2023-02-28T15:16:21;4.93;;;3.78;;
22441;SDS011;11388;54.456;9.752;2023-02-28T15:18:48;6.50;;;4.35;;
22441;SDS011;11388;54.456;9.752;2023-02-28T15:21:22;5.53;;;3.85;;
22441;SDS011;11388;54.456;9.752;2023-02-28T15:23:52;5.13;;;3.72;;
22441;SDS011;11388;54.456;9.752;2023-02-28T15:26:19;5.38;;;3.80;;
22441;SDS011;11388;54.456;9.752;2023-02-28T15:28:49;5.65;;;3.97;;
22441;SDS011;11388;54.456;9.752;2023-02-28T15:31:29;4.60;;;3.35;;
22441;SDS011;11388;54.456;9.752;2023-02-28T15:34:02;5.88;;;4.00;;
22441;SDS011;11388;54.456;9.752;2023-02-28T15:36:30;5.85;;;3.95;;
22441;SDS011;11388;54.456;9.752;2023-02-28T15:38:58;5.75;;;3.90;;
22441;SDS011;11388;54.456;9.752;2023-02-28T15:41:29;7.18;;;4.22;;
22441;SDS011;11388;54.456;9.752;2023-02-28T15:44:16;6.85;;;4.47;;
22441;SDS011;11388;54.456;9.752;2023-02-28T15:46:43;7.07;;;4.82;;
22441;SDS011;11388;54.456;9.752;2023-02-28T15:49:19;6.57;;;4.10;;
22441;SDS011;11388;54.456;9.752;2023-02-28T15:51:47;5.93;;;4.45;;
22441;SDS011;11388;54.456;9.752;2023-02-28T15:54:17;5.47;;;4.40;;
22441;SDS011;11388;54.456;9.752;2023-02-28T15:56:52;5.60;;;4.45;;
22441;SDS011;11388;54.456;9.752;2023-02-28T15:59:21;5.45;;;4.45;;
22441;SDS011;11388;54.456;9.752;2023-02-28T16:07:38;6.20;;;4.30;;
22441;SDS011;11388;54.456;9.752;2023-02-28T16:10:06;5.03;;;4.45;;
22441;SDS011;11388;54.456;9.752;2023-02-28T16:12:35;7.00;;;4.78;;
22441;SDS011;11388;54.456;9.752;2023-02-28T16:15:06;18.95;;;4.50;;
22441;SDS011;11388;54.456;9.752;2023-02-28T16:17:35;6.55;;;4.30;;
22441;SDS011;11388;54.456;9.752;2023-02-28T16:20:12;7.38;;;4.40;;
22441;SDS011;11388;54.456;9.752;2023-02-28T16:22:38;6.72;;;4.40;;
22441;SDS011;11388;54.456;9.752;2023-02-28T16:25:04;8.13;;;4.63;;
22441;SDS011;11388;54.456;9.752;2023-02-28T16:27:34;6.72;;;4.05;;
22441;SDS011;11388;54.456;9.752;2023-02-28T16:30:03;7.00;;;4.50;;
22441;SDS011;11388;54.456;9.752;2023-02-28T16:32:31;7.25;;;4.78;;
22441;SDS011;11388;54.456;9.752;2023-02-28T16:34:59;8.73;;;4.80;;
22441;SDS011;11388;54.456;9.752;2023-02-28T16:37:26;5.63;;;4.45;;
22441;SDS011;11388;54.456;9.752;2023-02-28T16:39:52;6.25;;;4.60;;
22441;SDS011;11388;54.456;9.752;2023-02-28T16:42:25;6.60;;;4.88;;
22441;SDS011;11388;54.456;9.752;2023-02-28T16:44:53;11.57;;;5.03;;
22441;SDS011;11388;54.456;9.752;2023-02-28T16:47:20;6.43;;;4.70;;
22441;SDS011;11388;54.456;9.752;2023-02-28T16:49:46;6.72;;;4.78;;
22441;SDS011;11388;54.456;9.752;2023-02-28T16:52:12;6.05;;;4.72;;
22441;SDS011;11388;54.456;9.752;2023-02-28T16:54:39;7.93;;;4.82;;
22441;SDS011;11388;54.456;9.752;2023-02-28T16:57:06;5.53;;;4.53;;
22441;SDS011;11388;54.456;9.752;2023-02-28T16:59:41;7.45;;;4.50;;
22441;SDS011;11388;54.456;9.752;2023-02-28T17:02:11;6.68;;;4.75;;
22441;SDS011;11388;54.456;9.752;2023-02-28T17:04:39;6.03;;;4.70;;
22441;SDS011;11388;54.456;9.752;2023-02-28T17:07:04;8.40;;;4.40;;
22441;SDS011;11388;54.456;9.752;2023-02-28T17:09:33;19.90;;;5.22;;
22441;SDS011;11388;54.456;9.752;2023-02-28T17:11:59;11.05;;;4.90;;
22441;SDS011;11388;54.456;9.752;2023-02-28T17:14:24;7.00;;;4.90;;
22441;SDS011;11388;54.456;9.752;2023-02-28T17:16:50;8.85;;;5.30;;
22441;SDS011;11388;54.456;9.752;2023-02-28T17:19:16;9.88;;;5.00;;
22441;SDS011;11388;54.456;9.752;2023-02-28T17:21:42;5.82;;;4.63;;
22441;SDS011;11388;54.456;9.752;2023-02-28T17:24:09;6.35;;;5.07;;
22441;SDS011;11388;54.456;9.752;2023-02-28T17:26:37;8.43;;;5.57;;